sensor_id;sensor_type;location;lat;lon;timestamp;temperature;humidity
25582;DHT22;13462;50.764;4.332;2023-06-14T00:01:32;18.50;89.60
25582;DHT22;13462;50.764;4.332;2023-06-14T00:04:00;18.40;89.10
25582;DHT22;13462;50.764;4.332;2023-06-14T00:06:28;18.30;89.10
25582;DHT22;13462;50.764;4.332;2023-06-14T00:08:54;18.30;90.20
25582;DHT22;13462;50.764;4.332;2023-06-14T00:11:20;18.20;90.80
25582;DHT22;13462;50.764;4.332;2023-06-14T00:13:46;18.20;90.50
25582;DHT22;13462;50.764;4.332;2023-06-14T00:16:12;18.20;90.60
25582;DHT22;13462;50.764;4.332;2023-06-14T00:18:38;18.30;90.40
25582;DHT22;13462;50.764;4.332;2023-06-14T00:21:04;18.30;90.90
25582;DHT22;13462;50.764;4.332;2023-06-14T00:23:30;18.20;90.60
25582;DHT22;13462;50.764;4.332;2023-06-14T00:25:55;18.10;91.20
25582;DHT22;13462;50.764;4.332;2023-06-14T00:28:21;18.20;91.10
25582;DHT22;13462;50.764;4.332;2023-06-14T00:30:47;18.30;91.00
25582;DHT22;13462;50.764;4.332;2023-06-14T00:33:13;18.20;90.60
25582;DHT22;13462;50.764;4.332;2023-06-14T00:35:38;18.20;91.10
25582;DHT22;13462;50.764;4.332;2023-06-14T00:38:04;18.20;91.20
25582;DHT22;13462;50.764;4.332;2023-06-14T00:40:30;18.20;90.90
25582;DHT22;13462;50.764;4.332;2023-06-14T00:42:55;18.20;91.30
25582;DHT22;13462;50.764;4.332;2023-06-14T00:45:21;18.10;91.40
25582;DHT22;13462;50.764;4.332;2023-06-14T00:47:47;18.10;91.80
25582;DHT22;13462;50.764;4.332;2023-06-14T00:50:16;18.00;92.40
25582;DHT22;13462;50.764;4.332;2023-06-14T00:52:42;18.00;92.20
25582;DHT22;13462;50.764;4.332;2023-06-14T00:55:08;17.90;92.30
25582;DHT22;13462;50.764;4.332;2023-06-14T00:57:34;17.80;92.70
25582;DHT22;13462;50.764;4.332;2023-06-14T01:00:03;17.80;93.20
25582;DHT22;13462;50.764;4.332;2023-06-14T01:02:30;17.80;93.10
25582;DHT22;13462;50.764;4.332;2023-06-14T01:04:55;17.80;93.60
25582;DHT22;13462;50.764;4.332;2023-06-14T01:12:58;17.70;94.00
25582;DHT22;13462;50.764;4.332;2023-06-14T01:15:30;17.70;93.60
25582;DHT22;13462;50.764;4.332;2023-06-14T01:17:56;17.70;93.80
25582;DHT22;13462;50.764;4.332;2023-06-14T01:20:32;17.70;94.30
25582;DHT22;13462;50.764;4.332;2023-06-14T01:22:58;17.60;94.60
25582;DHT22;13462;50.764;4.332;2023-06-14T01:25:24;17.50;94.60
25582;DHT22;13462;50.764;4.332;2023-06-14T01:27:53;17.60;94.70
25582;DHT22;13462;50.764;4.332;2023-06-14T01:30:20;17.60;94.70
25582;DHT22;13462;50.764;4.332;2023-06-14T01:32:47;17.60;94.80
25582;DHT22;13462;50.764;4.332;2023-06-14T01:35:13;17.60;94.70
25582;DHT22;13462;50.764;4.332;2023-06-14T01:37:40;17.50;95.00
25582;DHT22;13462;50.764;4.332;2023-06-14T01:40:07;17.40;95.40
25582;DHT22;13462;50.764;4.332;2023-06-14T01:42:36;17.40;95.70
25582;DHT22;13462;50.764;4.332;2023-06-14T01:45:04;17.30;96.30
25582;DHT22;13462;50.764;4.332;2023-06-14T01:47:31;17.30;96.60
25582;DHT22;13462;50.764;4.332;2023-06-14T01:49:58;17.20;96.80
25582;DHT22;13462;50.764;4.332;2023-06-14T01:52:24;17.20;97.10
25582;DHT22;13462;50.764;4.332;2023-06-14T01:54:50;17.20;97.30
25582;DHT22;13462;50.764;4.332;2023-06-14T01:57:16;17.10;97.30
25582;DHT22;13462;50.764;4.332;2023-06-14T01:59:41;17.00;97.60
25582;DHT22;13462;50.764;4.332;2023-06-14T02:02:07;17.10;97.60
25582;DHT22;13462;50.764;4.332;2023-06-14T02:04:33;17.10;98.30
25582;DHT22;13462;50.764;4.332;2023-06-14T02:06:59;17.00;98.40
25582;DHT22;13462;50.764;4.332;2023-06-14T02:09:25;16.90;98.90
25582;DHT22;13462;50.764;4.332;2023-06-14T02:11:50;16.80;98.90
25582;DHT22;13462;50.764;4.332;2023-06-14T02:14:16;16.90;98.70
25582;DHT22;13462;50.764;4.332;2023-06-14T02:16:42;17.00;99.00
25582;DHT22;13462;50.764;4.332;2023-06-14T02:19:16;16.90;99.20
25582;DHT22;13462;50.764;4.332;2023-06-14T02:21:42;16.90;99.20
25582;DHT22;13462;50.764;4.332;2023-06-14T02:24:08;16.90;99.50
25582;DHT22;13462;50.764;4.332;2023-06-14T02:26:34;16.80;99.20
25582;DHT22;13462;50.764;4.332;2023-06-14T02:28:59;16.90;99.20
25582;DHT22;13462;50.764;4.332;2023-06-14T02:31:26;16.90;99.70
25582;DHT22;13462;50.764;4.332;2023-06-14T02:33:52;16.90;99.40
25582;DHT22;13462;50.764;4.332;2023-06-14T02:36:18;16.90;99.30
25582;DHT22;13462;50.764;4.332;2023-06-14T02:38:43;16.90;99.60
25582;DHT22;13462;50.764;4.332;2023-06-14T02:41:09;16.90;99.60
25582;DHT22;13462;50.764;4.332;2023-06-14T02:43:35;16.80;99.80
25582;DHT22;13462;50.764;4.332;2023-06-14T02:46:01;16.80;99.90
25582;DHT22;13462;50.764;4.332;2023-06-14T02:48:27;16.70;99.90
25582;DHT22;13462;50.764;4.332;2023-06-14T02:50:53;16.70;99.90
25582;DHT22;13462;50.764;4.332;2023-06-14T02:53:19;16.70;99.90
25582;DHT22;13462;50.764;4.332;2023-06-14T02:55:44;16.60;99.90
25582;DHT22;13462;50.764;4.332;2023-06-14T02:58:12;16.60;99.90
25582;DHT22;13462;50.764;4.332;2023-06-14T03:00:38;16.50;99.90
25582;DHT22;13462;50.764;4.332;2023-06-14T03:03:03;16.50;99.90
25582;DHT22;13462;50.764;4.332;2023-06-14T03:05:30;16.40;99.90
25582;DHT22;13462;50.764;4.332;2023-06-14T03:07:55;16.40;99.90
25582;DHT22;13462;50.764;4.332;2023-06-14T03:10:22;16.40;99.90
25582;DHT22;13462;50.764;4.332;2023-06-14T03:12:47;16.50;99.90
25582;DHT22;13462;50.764;4.332;2023-06-14T03:15:13;16.40;99.90
25582;DHT22;13462;50.764;4.332;2023-06-14T03:17:39;16.50;99.90
25582;DHT22;13462;50.764;4.332;2023-06-14T03:20:05;16.40;99.90
25582;DHT22;13462;50.764;4.332;2023-06-14T03:22:31;16.30;99.90
25582;DHT22;13462;50.764;4.332;2023-06-14T03:24:59;16.30;99.90
25582;DHT22;13462;50.764;4.332;2023-06-14T03:27:25;16.30;99.90
25582;DHT22;13462;50.764;4.332;2023-06-14T03:29:54;16.20;99.90
25582;DHT22;13462;50.764;4.332;2023-06-14T03:32:19;16.20;99.90
25582;DHT22;13462;50.764;4.332;2023-06-14T03:34:45;16.20;99.90
25582;DHT22;13462;50.764;4.332;2023-06-14T03:37:10;16.10;99.90
25582;DHT22;13462;50.764;4.332;2023-06-14T03:39:36;16.10;99.90
25582;DHT22;13462;50.764;4.332;2023-06-14T03:42:02;16.10;99.90
25582;DHT22;13462;50.764;4.332;2023-06-14T03:44:27;16.00;99.90
25582;DHT22;13462;50.764;4.332;2023-06-14T03:46:53;16.00;99.90
25582;DHT22;13462;50.764;4.332;2023-06-14T03:49:19;15.90;99.90
25582;DHT22;13462;50.764;4.332;2023-06-14T03:51:44;15.90;99.90
25582;DHT22;13462;50.764;4.332;2023-06-14T03:54:11;15.90;99.90
25582;DHT22;13462;50.764;4.332;2023-06-14T03:56:36;15.90;99.90
25582;DHT22;13462;50.764;4.332;2023-06-14T03:59:02;15.80;99.90
25582;DHT22;13462;50.764;4.332;2023-06-14T04:01:28;15.80;99.90
25582;DHT22;13462;50.764;4.332;2023-06-14T04:03:57;15.80;99.90
25582;DHT22;13462;50.764;4.332;2023-06-14T04:06:23;15.90;99.90
25582;DHT22;13462;50.764;4.332;2023-06-14T04:08:51;15.90;99.90
25582;DHT22;13462;50.764;4.332;2023-06-14T04:11:17;15.90;99.90
25582;DHT22;13462;50.764;4.332;2023-06-14T04:13:44;15.90;99.90
25582;DHT22;13462;50.764;4.332;2023-06-14T04:16:10;16.00;99.90
25582;DHT22;13462;50.764;4.332;2023-06-14T04:18:35;16.10;99.90
25582;DHT22;13462;50.764;4.332;2023-06-14T04:21:01;16.10;99.90
25582;DHT22;13462;50.764;4.332;2023-06-14T04:23:26;16.20;99.90
25582;DHT22;13462;50.764;4.332;2023-06-14T04:25:53;16.20;99.90
25582;DHT22;13462;50.764;4.332;2023-06-14T04:28:19;16.30;99.90
25582;DHT22;13462;50.764;4.332;2023-06-14T04:30:45;16.30;99.90
25582;DHT22;13462;50.764;4.332;2023-06-14T04:33:12;16.40;99.90
25582;DHT22;13462;50.764;4.332;2023-06-14T04:35:39;16.40;99.90
25582;DHT22;13462;50.764;4.332;2023-06-14T04:38:06;16.50;99.90
25582;DHT22;13462;50.764;4.332;2023-06-14T04:40:35;16.60;99.90
25582;DHT22;13462;50.764;4.332;2023-06-14T04:43:11;16.70;99.90
25582;DHT22;13462;50.764;4.332;2023-06-14T04:45:42;16.80;99.90
25582;DHT22;13462;50.764;4.332;2023-06-14T04:48:10;17.00;99.90
25582;DHT22;13462;50.764;4.332;2023-06-14T04:50:37;17.20;99.90
25582;DHT22;13462;50.764;4.332;2023-06-14T04:53:02;17.30;99.90
25582;DHT22;13462;50.764;4.332;2023-06-14T04:55:28;17.50;99.90
25582;DHT22;13462;50.764;4.332;2023-06-14T04:57:54;17.60;99.90
25582;DHT22;13462;50.764;4.332;2023-06-14T05:00:20;17.70;99.90
25582;DHT22;13462;50.764;4.332;2023-06-14T05:02:46;17.80;99.90
25582;DHT22;13462;50.764;4.332;2023-06-14T05:05:12;17.90;99.90
25582;DHT22;13462;50.764;4.332;2023-06-14T05:07:38;18.00;99.90
25582;DHT22;13462;50.764;4.332;2023-06-14T05:10:04;18.00;99.90
25582;DHT22;13462;50.764;4.332;2023-06-14T05:12:30;18.20;99.90
25582;DHT22;13462;50.764;4.332;2023-06-14T05:14:56;18.40;98.70
25582;DHT22;13462;50.764;4.332;2023-06-14T05:17:24;18.50;99.90
25582;DHT22;13462;50.764;4.332;2023-06-14T05:19:49;18.60;98.90
25582;DHT22;13462;50.764;4.332;2023-06-14T05:22:15;18.70;98.30
25582;DHT22;13462;50.764;4.332;2023-06-14T05:24:40;18.90;97.10
25582;DHT22;13462;50.764;4.332;2023-06-14T05:27:07;19.00;97.50
25582;DHT22;13462;50.764;4.332;2023-06-14T05:29:33;19.10;96.40
25582;DHT22;13462;50.764;4.332;2023-06-14T05:31:59;19.20;97.30
25582;DHT22;13462;50.764;4.332;2023-06-14T05:34:24;19.30;96.60
25582;DHT22;13462;50.764;4.332;2023-06-14T05:36:50;19.40;96.80
25582;DHT22;13462;50.764;4.332;2023-06-14T05:39:15;19.50;95.90
25582;DHT22;13462;50.764;4.332;2023-06-14T05:41:42;19.60;96.30
25582;DHT22;13462;50.764;4.332;2023-06-14T05:44:09;19.70;96.40
25582;DHT22;13462;50.764;4.332;2023-06-14T05:46:35;19.90;95.20
25582;DHT22;13462;50.764;4.332;2023-06-14T05:49:00;20.30;94.50
25582;DHT22;13462;50.764;4.332;2023-06-14T05:51:26;20.80;92.20
25582;DHT22;13462;50.764;4.332;2023-06-14T05:53:52;21.90;91.00
25582;DHT22;13462;50.764;4.332;2023-06-14T05:56:18;23.20;86.00
25582;DHT22;13462;50.764;4.332;2023-06-14T05:58:44;24.60;81.20
25582;DHT22;13462;50.764;4.332;2023-06-14T06:01:10;25.80;78.00
25582;DHT22;13462;50.764;4.332;2023-06-14T06:03:36;26.30;69.30
25582;DHT22;13462;50.764;4.332;2023-06-14T06:06:02;26.50;67.60
25582;DHT22;13462;50.764;4.332;2023-06-14T06:08:28;27.40;69.00
25582;DHT22;13462;50.764;4.332;2023-06-14T06:10:55;27.60;63.60
25582;DHT22;13462;50.764;4.332;2023-06-14T06:13:20;27.80;63.80
25582;DHT22;13462;50.764;4.332;2023-06-14T06:15:46;28.60;62.40
25582;DHT22;13462;50.764;4.332;2023-06-14T06:18:12;29.10;59.30
25582;DHT22;13462;50.764;4.332;2023-06-14T06:20:37;29.00;58.40
25582;DHT22;13462;50.764;4.332;2023-06-14T06:23:03;29.60;59.00
25582;DHT22;13462;50.764;4.332;2023-06-14T06:25:29;29.40;56.50
25582;DHT22;13462;50.764;4.332;2023-06-14T06:27:57;30.40;56.50
25582;DHT22;13462;50.764;4.332;2023-06-14T06:30:23;29.70;55.40
25582;DHT22;13462;50.764;4.332;2023-06-14T06:32:49;29.10;56.50
25582;DHT22;13462;50.764;4.332;2023-06-14T06:35:16;29.70;56.30
25582;DHT22;13462;50.764;4.332;2023-06-14T06:37:42;29.60;55.40
25582;DHT22;13462;50.764;4.332;2023-06-14T06:40:08;29.90;56.70
25582;DHT22;13462;50.764;4.332;2023-06-14T06:42:35;29.70;55.80
25582;DHT22;13462;50.764;4.332;2023-06-14T06:45:00;30.50;55.30
25582;DHT22;13462;50.764;4.332;2023-06-14T06:47:27;31.40;54.10
25582;DHT22;13462;50.764;4.332;2023-06-14T06:49:52;31.70;53.90
25582;DHT22;13462;50.764;4.332;2023-06-14T06:52:18;31.50;52.60
25582;DHT22;13462;50.764;4.332;2023-06-14T06:54:44;31.90;51.90
25582;DHT22;13462;50.764;4.332;2023-06-14T06:57:09;32.50;52.20
25582;DHT22;13462;50.764;4.332;2023-06-14T06:59:36;32.70;52.60
25582;DHT22;13462;50.764;4.332;2023-06-14T07:02:02;33.40;51.60
25582;DHT22;13462;50.764;4.332;2023-06-14T07:04:27;33.60;50.60
25582;DHT22;13462;50.764;4.332;2023-06-14T07:06:53;33.80;50.00
25582;DHT22;13462;50.764;4.332;2023-06-14T07:09:19;33.50;50.30
25582;DHT22;13462;50.764;4.332;2023-06-14T07:11:46;33.60;50.50
25582;DHT22;13462;50.764;4.332;2023-06-14T07:14:12;34.30;48.90
25582;DHT22;13462;50.764;4.332;2023-06-14T07:16:37;34.70;49.40
25582;DHT22;13462;50.764;4.332;2023-06-14T07:19:03;33.60;49.00
25582;DHT22;13462;50.764;4.332;2023-06-14T07:21:29;33.20;50.30
25582;DHT22;13462;50.764;4.332;2023-06-14T07:23:55;33.60;50.40
25582;DHT22;13462;50.764;4.332;2023-06-14T07:26:21;32.80;49.90
25582;DHT22;13462;50.764;4.332;2023-06-14T07:28:48;33.40;49.80
25582;DHT22;13462;50.764;4.332;2023-06-14T07:31:17;34.40;49.40
25582;DHT22;13462;50.764;4.332;2023-06-14T07:33:44;35.00;47.60
25582;DHT22;13462;50.764;4.332;2023-06-14T07:36:10;35.50;48.20
25582;DHT22;13462;50.764;4.332;2023-06-14T07:38:35;35.40;47.40
25582;DHT22;13462;50.764;4.332;2023-06-14T07:41:02;36.00;46.40
25582;DHT22;13462;50.764;4.332;2023-06-14T07:43:27;36.20;44.60
25582;DHT22;13462;50.764;4.332;2023-06-14T07:45:53;35.60;44.50
25582;DHT22;13462;50.764;4.332;2023-06-14T07:48:19;36.20;45.20
25582;DHT22;13462;50.764;4.332;2023-06-14T07:50:44;36.70;45.40
25582;DHT22;13462;50.764;4.332;2023-06-14T07:53:10;36.80;43.40
25582;DHT22;13462;50.764;4.332;2023-06-14T07:55:36;37.40;43.90
25582;DHT22;13462;50.764;4.332;2023-06-14T07:58:06;38.00;44.40
25582;DHT22;13462;50.764;4.332;2023-06-14T08:00:31;38.20;43.70
25582;DHT22;13462;50.764;4.332;2023-06-14T08:02:57;37.90;42.80
25582;DHT22;13462;50.764;4.332;2023-06-14T08:05:27;37.70;42.70
25582;DHT22;13462;50.764;4.332;2023-06-14T08:07:53;37.60;42.70
25582;DHT22;13462;50.764;4.332;2023-06-14T08:10:19;38.10;42.90
25582;DHT22;13462;50.764;4.332;2023-06-14T08:12:45;38.90;42.20
25582;DHT22;13462;50.764;4.332;2023-06-14T08:15:11;38.90;41.50
25582;DHT22;13462;50.764;4.332;2023-06-14T08:17:37;38.70;42.00
25582;DHT22;13462;50.764;4.332;2023-06-14T08:20:03;38.80;41.20
25582;DHT22;13462;50.764;4.332;2023-06-14T08:22:32;39.10;42.60
25582;DHT22;13462;50.764;4.332;2023-06-14T08:25:01;39.40;40.40
25582;DHT22;13462;50.764;4.332;2023-06-14T08:27:27;39.10;41.90
25582;DHT22;13462;50.764;4.332;2023-06-14T08:29:53;39.60;41.20
25582;DHT22;13462;50.764;4.332;2023-06-14T08:32:18;39.90;40.80
25582;DHT22;13462;50.764;4.332;2023-06-14T08:34:44;39.20;38.20
25582;DHT22;13462;50.764;4.332;2023-06-14T08:37:10;39.50;39.50
25582;DHT22;13462;50.764;4.332;2023-06-14T08:39:36;39.70;40.10
25582;DHT22;13462;50.764;4.332;2023-06-14T08:42:03;39.70;38.40
25582;DHT22;13462;50.764;4.332;2023-06-14T08:44:30;39.60;38.80
25582;DHT22;13462;50.764;4.332;2023-06-14T08:46:56;39.50;39.30
25582;DHT22;13462;50.764;4.332;2023-06-14T08:49:25;39.20;39.00
25582;DHT22;13462;50.764;4.332;2023-06-14T08:51:57;38.90;38.70
25582;DHT22;13462;50.764;4.332;2023-06-14T08:54:25;38.20;39.20
25582;DHT22;13462;50.764;4.332;2023-06-14T08:56:54;38.10;39.70
25582;DHT22;13462;50.764;4.332;2023-06-14T08:59:26;37.50;39.50
25582;DHT22;13462;50.764;4.332;2023-06-14T09:01:53;37.50;39.90
25582;DHT22;13462;50.764;4.332;2023-06-14T09:04:23;38.60;40.80
25582;DHT22;13462;50.764;4.332;2023-06-14T09:06:53;39.00;40.00
25582;DHT22;13462;50.764;4.332;2023-06-14T09:09:20;39.20;39.50
25582;DHT22;13462;50.764;4.332;2023-06-14T09:11:46;38.80;39.50
25582;DHT22;13462;50.764;4.332;2023-06-14T09:14:12;39.20;40.00
25582;DHT22;13462;50.764;4.332;2023-06-14T09:16:38;39.40;40.30
25582;DHT22;13462;50.764;4.332;2023-06-14T09:19:04;38.70;39.00
25582;DHT22;13462;50.764;4.332;2023-06-14T09:21:34;38.40;40.20
25582;DHT22;13462;50.764;4.332;2023-06-14T09:24:01;38.40;40.40
25582;DHT22;13462;50.764;4.332;2023-06-14T09:26:27;38.50;40.80
25582;DHT22;13462;50.764;4.332;2023-06-14T09:28:53;38.60;39.80
25582;DHT22;13462;50.764;4.332;2023-06-14T09:31:19;39.40;39.60
25582;DHT22;13462;50.764;4.332;2023-06-14T09:33:47;39.40;40.90
25582;DHT22;13462;50.764;4.332;2023-06-14T09:36:24;38.80;40.90
25582;DHT22;13462;50.764;4.332;2023-06-14T09:39:01;39.40;40.50
25582;DHT22;13462;50.764;4.332;2023-06-14T09:41:37;38.90;39.80
25582;DHT22;13462;50.764;4.332;2023-06-14T09:44:05;39.20;40.10
25582;DHT22;13462;50.764;4.332;2023-06-14T09:46:32;39.10;39.90
25582;DHT22;13462;50.764;4.332;2023-06-14T09:48:58;39.20;39.50
25582;DHT22;13462;50.764;4.332;2023-06-14T09:51:25;38.50;39.90
25582;DHT22;13462;50.764;4.332;2023-06-14T09:53:51;38.40;41.00
25582;DHT22;13462;50.764;4.332;2023-06-14T09:56:28;38.10;40.50
25582;DHT22;13462;50.764;4.332;2023-06-14T09:58:56;37.70;40.70
25582;DHT22;13462;50.764;4.332;2023-06-14T10:01:26;38.50;40.70
25582;DHT22;13462;50.764;4.332;2023-06-14T10:04:00;38.40;40.30
25582;DHT22;13462;50.764;4.332;2023-06-14T10:06:29;38.50;40.00
25582;DHT22;13462;50.764;4.332;2023-06-14T10:08:57;38.70;41.10
25582;DHT22;13462;50.764;4.332;2023-06-14T10:11:28;38.70;41.00
25582;DHT22;13462;50.764;4.332;2023-06-14T10:13:58;38.20;40.90
25582;DHT22;13462;50.764;4.332;2023-06-14T10:16:34;37.70;41.20
25582;DHT22;13462;50.764;4.332;2023-06-14T10:24:13;37.60;38.70
25582;DHT22;13462;50.764;4.332;2023-06-14T10:26:51;37.20;40.00
25582;DHT22;13462;50.764;4.332;2023-06-14T10:29:17;37.10;39.50
25582;DHT22;13462;50.764;4.332;2023-06-14T10:31:45;36.40;39.90
25582;DHT22;13462;50.764;4.332;2023-06-14T10:34:12;36.70;40.40
25582;DHT22;13462;50.764;4.332;2023-06-14T10:36:41;37.10;39.70
25582;DHT22;13462;50.764;4.332;2023-06-14T10:39:14;37.10;39.70
25582;DHT22;13462;50.764;4.332;2023-06-14T10:41:41;37.00;40.20
25582;DHT22;13462;50.764;4.332;2023-06-14T10:46:48;37.50;38.20
25582;DHT22;13462;50.764;4.332;2023-06-14T10:49:17;37.40;38.70
25582;DHT22;13462;50.764;4.332;2023-06-14T10:51:45;37.60;37.20
25582;DHT22;13462;50.764;4.332;2023-06-14T10:54:15;37.40;38.10
25582;DHT22;13462;50.764;4.332;2023-06-14T10:56:51;37.20;37.90
25582;DHT22;13462;50.764;4.332;2023-06-14T10:59:18;37.20;39.50
25582;DHT22;13462;50.764;4.332;2023-06-14T11:04:51;36.80;38.90
25582;DHT22;13462;50.764;4.332;2023-06-14T11:12:33;37.50;37.90
25582;DHT22;13462;50.764;4.332;2023-06-14T11:15:01;38.40;38.90
25582;DHT22;13462;50.764;4.332;2023-06-14T11:17:26;38.80;39.20
25582;DHT22;13462;50.764;4.332;2023-06-14T11:20:10;39.10;37.60
25582;DHT22;13462;50.764;4.332;2023-06-14T11:22:42;39.80;37.80
25582;DHT22;13462;50.764;4.332;2023-06-14T11:25:09;39.70;37.50
25582;DHT22;13462;50.764;4.332;2023-06-14T11:27:35;39.30;37.80
25582;DHT22;13462;50.764;4.332;2023-06-14T11:30:01;38.90;36.90
25582;DHT22;13462;50.764;4.332;2023-06-14T11:32:26;38.60;36.70
25582;DHT22;13462;50.764;4.332;2023-06-14T11:34:52;38.60;37.90
25582;DHT22;13462;50.764;4.332;2023-06-14T11:37:18;37.90;38.90
25582;DHT22;13462;50.764;4.332;2023-06-14T11:39:44;38.60;38.40
25582;DHT22;13462;50.764;4.332;2023-06-14T11:42:15;39.00;36.80
25582;DHT22;13462;50.764;4.332;2023-06-14T11:44:41;38.80;37.00
25582;DHT22;13462;50.764;4.332;2023-06-14T11:47:06;38.20;38.20
25582;DHT22;13462;50.764;4.332;2023-06-14T11:49:36;38.60;38.00
25582;DHT22;13462;50.764;4.332;2023-06-14T11:52:02;38.70;37.20
25582;DHT22;13462;50.764;4.332;2023-06-14T11:54:27;38.70;36.70
25582;DHT22;13462;50.764;4.332;2023-06-14T11:56:53;38.40;37.70
25582;DHT22;13462;50.764;4.332;2023-06-14T11:59:20;38.10;37.30
25582;DHT22;13462;50.764;4.332;2023-06-14T12:01:47;37.30;38.00
25582;DHT22;13462;50.764;4.332;2023-06-14T12:04:13;37.40;39.70
25582;DHT22;13462;50.764;4.332;2023-06-14T12:06:39;37.40;38.70
25582;DHT22;13462;50.764;4.332;2023-06-14T12:09:05;37.20;38.20
25582;DHT22;13462;50.764;4.332;2023-06-14T12:11:38;37.40;40.10
25582;DHT22;13462;50.764;4.332;2023-06-14T12:14:05;37.20;38.20
25582;DHT22;13462;50.764;4.332;2023-06-14T12:16:35;37.30;39.00
25582;DHT22;13462;50.764;4.332;2023-06-14T12:19:14;37.30;38.40
25582;DHT22;13462;50.764;4.332;2023-06-14T12:21:41;36.70;39.60
25582;DHT22;13462;50.764;4.332;2023-06-14T12:24:08;36.60;39.80
25582;DHT22;13462;50.764;4.332;2023-06-14T12:26:37;37.10;39.10
25582;DHT22;13462;50.764;4.332;2023-06-14T12:29:05;36.40;38.70
25582;DHT22;13462;50.764;4.332;2023-06-14T12:31:30;36.00;38.90
25582;DHT22;13462;50.764;4.332;2023-06-14T12:33:56;35.70;40.50
25582;DHT22;13462;50.764;4.332;2023-06-14T12:36:22;36.00;38.60
25582;DHT22;13462;50.764;4.332;2023-06-14T12:38:47;36.20;41.00
25582;DHT22;13462;50.764;4.332;2023-06-14T12:41:13;36.60;38.40
25582;DHT22;13462;50.764;4.332;2023-06-14T12:43:39;36.70;39.40
25582;DHT22;13462;50.764;4.332;2023-06-14T12:46:05;35.90;38.30
25582;DHT22;13462;50.764;4.332;2023-06-14T12:48:31;36.10;40.70
25582;DHT22;13462;50.764;4.332;2023-06-14T12:50:57;35.90;38.50
25582;DHT22;13462;50.764;4.332;2023-06-14T12:53:23;35.60;39.10
25582;DHT22;13462;50.764;4.332;2023-06-14T12:55:49;35.50;39.80
25582;DHT22;13462;50.764;4.332;2023-06-14T12:58:15;35.50;40.80
25582;DHT22;13462;50.764;4.332;2023-06-14T13:00:42;35.40;39.70
25582;DHT22;13462;50.764;4.332;2023-06-14T13:03:09;35.60;39.70
25582;DHT22;13462;50.764;4.332;2023-06-14T13:05:35;35.20;39.50
25582;DHT22;13462;50.764;4.332;2023-06-14T13:08:01;35.20;40.30
25582;DHT22;13462;50.764;4.332;2023-06-14T13:10:26;34.60;40.10
25582;DHT22;13462;50.764;4.332;2023-06-14T13:12:52;34.20;40.30
25582;DHT22;13462;50.764;4.332;2023-06-14T13:15:18;33.90;43.00
25582;DHT22;13462;50.764;4.332;2023-06-14T13:17:44;33.80;41.20
25582;DHT22;13462;50.764;4.332;2023-06-14T13:20:13;33.40;43.10
25582;DHT22;13462;50.764;4.332;2023-06-14T13:22:39;33.10;42.60
25582;DHT22;13462;50.764;4.332;2023-06-14T13:25:06;33.00;42.50
25582;DHT22;13462;50.764;4.332;2023-06-14T13:27:31;32.80;44.50
25582;DHT22;13462;50.764;4.332;2023-06-14T13:29:57;32.70;43.70
25582;DHT22;13462;50.764;4.332;2023-06-14T13:32:23;32.90;42.40
25582;DHT22;13462;50.764;4.332;2023-06-14T13:34:49;32.50;44.70
25582;DHT22;13462;50.764;4.332;2023-06-14T13:37:14;31.90;44.40
25582;DHT22;13462;50.764;4.332;2023-06-14T13:39:40;31.80;43.10
25582;DHT22;13462;50.764;4.332;2023-06-14T13:42:06;31.80;44.70
25582;DHT22;13462;50.764;4.332;2023-06-14T13:44:32;31.80;44.90
25582;DHT22;13462;50.764;4.332;2023-06-14T13:46:57;31.50;43.80
25582;DHT22;13462;50.764;4.332;2023-06-14T13:49:23;31.20;43.00
25582;DHT22;13462;50.764;4.332;2023-06-14T13:51:48;31.00;44.20
25582;DHT22;13462;50.764;4.332;2023-06-14T13:54:14;30.70;43.20
25582;DHT22;13462;50.764;4.332;2023-06-14T13:56:41;31.00;44.80
25582;DHT22;13462;50.764;4.332;2023-06-14T13:59:06;30.90;43.20
25582;DHT22;13462;50.764;4.332;2023-06-14T14:01:32;31.10;44.80
25582;DHT22;13462;50.764;4.332;2023-06-14T14:03:58;31.20;45.40
25582;DHT22;13462;50.764;4.332;2023-06-14T14:06:24;30.90;44.10
25582;DHT22;13462;50.764;4.332;2023-06-14T14:08:50;30.90;43.30
25582;DHT22;13462;50.764;4.332;2023-06-14T14:11:16;30.70;43.90
25582;DHT22;13462;50.764;4.332;2023-06-14T14:13:41;30.60;43.00
25582;DHT22;13462;50.764;4.332;2023-06-14T14:16:08;30.20;43.80
25582;DHT22;13462;50.764;4.332;2023-06-14T14:18:33;30.10;45.00
25582;DHT22;13462;50.764;4.332;2023-06-14T14:20:59;30.10;46.10
25582;DHT22;13462;50.764;4.332;2023-06-14T14:23:26;30.40;43.80
25582;DHT22;13462;50.764;4.332;2023-06-14T14:25:51;30.70;45.00
25582;DHT22;13462;50.764;4.332;2023-06-14T14:28:17;30.70;45.70
25582;DHT22;13462;50.764;4.332;2023-06-14T14:30:44;30.70;44.30
25582;DHT22;13462;50.764;4.332;2023-06-14T14:33:11;30.40;44.00
25582;DHT22;13462;50.764;4.332;2023-06-14T14:35:44;30.20;44.30
25582;DHT22;13462;50.764;4.332;2023-06-14T14:38:13;30.10;42.80
25582;DHT22;13462;50.764;4.332;2023-06-14T14:40:40;30.20;44.90
25582;DHT22;13462;50.764;4.332;2023-06-14T14:43:06;30.20;44.50
25582;DHT22;13462;50.764;4.332;2023-06-14T14:45:32;30.10;43.50
25582;DHT22;13462;50.764;4.332;2023-06-14T14:47:58;30.40;45.90
25582;DHT22;13462;50.764;4.332;2023-06-14T14:50:25;30.20;44.90
25582;DHT22;13462;50.764;4.332;2023-06-14T14:52:51;30.40;44.80
25582;DHT22;13462;50.764;4.332;2023-06-14T14:55:16;30.40;44.50
25582;DHT22;13462;50.764;4.332;2023-06-14T14:57:42;30.20;44.50
25582;DHT22;13462;50.764;4.332;2023-06-14T15:00:08;30.40;44.30
25582;DHT22;13462;50.764;4.332;2023-06-14T15:02:35;30.40;42.30
25582;DHT22;13462;50.764;4.332;2023-06-14T15:05:00;30.20;42.50
25582;DHT22;13462;50.764;4.332;2023-06-14T15:07:28;30.30;43.40
25582;DHT22;13462;50.764;4.332;2023-06-14T15:09:54;30.30;44.40
25582;DHT22;13462;50.764;4.332;2023-06-14T15:12:20;30.10;42.70
25582;DHT22;13462;50.764;4.332;2023-06-14T15:14:51;30.10;44.20
25582;DHT22;13462;50.764;4.332;2023-06-14T15:17:17;29.90;44.70
25582;DHT22;13462;50.764;4.332;2023-06-14T15:19:44;29.90;45.50
25582;DHT22;13462;50.764;4.332;2023-06-14T15:22:10;29.80;46.20
25582;DHT22;13462;50.764;4.332;2023-06-14T15:24:36;29.80;46.10
25582;DHT22;13462;50.764;4.332;2023-06-14T15:27:01;29.80;43.70
25582;DHT22;13462;50.764;4.332;2023-06-14T15:29:28;29.80;43.20
25582;DHT22;13462;50.764;4.332;2023-06-14T15:31:53;29.70;43.90
25582;DHT22;13462;50.764;4.332;2023-06-14T15:34:20;29.60;45.30
25582;DHT22;13462;50.764;4.332;2023-06-14T15:36:46;29.60;43.80
25582;DHT22;13462;50.764;4.332;2023-06-14T15:39:12;29.60;44.50
25582;DHT22;13462;50.764;4.332;2023-06-14T15:41:37;29.60;43.50
25582;DHT22;13462;50.764;4.332;2023-06-14T15:44:03;29.80;44.60
25582;DHT22;13462;50.764;4.332;2023-06-14T15:46:29;29.90;44.60
25582;DHT22;13462;50.764;4.332;2023-06-14T15:48:54;29.80;44.50